sensor_id;sensor_type;location;lat;lon;timestamp;pressure;altitude;pressure_sealevel;temperature;humidity
60373;BME280;46216;52.220;5.134;2023-04-01T00:00:28;99197.78;;;10.37;100.00
60373;BME280;46216;52.220;5.134;2023-04-01T00:02:54;99191.34;;;10.40;100.00
60373;BME280;46216;52.220;5.134;2023-04-01T00:05:20;99197.09;;;10.35;100.00
60373;BME280;46216;52.220;5.134;2023-04-01T00:07:45;99197.50;;;10.40;100.00
60373;BME280;46216;52.220;5.134;2023-04-01T00:10:12;99197.50;;;10.40;100.00
60373;BME280;46216;52.220;5.134;2023-04-01T00:12:38;99196.97;;;10.37;100.00
60373;BME280;46216;52.220;5.134;2023-04-01T00:15:06;99197.50;;;10.40;100.00
60373;BME280;46216;52.220;5.134;2023-04-01T00:17:32;99194.44;;;10.35;100.00
60373;BME280;46216;52.220;5.134;2023-04-01T00:19:58;99201.44;;;10.36;100.00
60373;BME280;46216;52.220;5.134;2023-04-01T00:22:28;99198.94;;;10.35;100.00
60373;BME280;46216;52.220;5.134;2023-04-01T00:24:53;99201.44;;;10.36;100.00
60373;BME280;46216;52.220;5.134;2023-04-01T00:27:19;99198.94;;;10.35;100.00
60373;BME280;46216;52.220;5.134;2023-04-01T00:29:45;99206.91;;;10.35;100.00
60373;BME280;46216;52.220;5.134;2023-04-01T00:32:12;99203.72;;;10.31;100.00
60373;BME280;46216;52.220;5.134;2023-04-01T00:34:38;99208.03;;;10.32;100.00
60373;BME280;46216;52.220;5.134;2023-04-01T00:37:06;99203.03;;;10.29;100.00
60373;BME280;46216;52.220;5.134;2023-04-01T00:39:35;99206.53;;;10.30;100.00
60373;BME280;46216;52.220;5.134;2023-04-01T00:42:02;99198.94;;;10.25;100.00
60373;BME280;46216;52.220;5.134;2023-04-01T00:44:32;99214.91;;;10.25;100.00
60373;BME280;46216;52.220;5.134;2023-04-01T00:47:00;99216.22;;;10.21;100.00
60373;BME280;46216;52.220;5.134;2023-04-01T00:49:34;99207.41;;;10.21;100.00
60373;BME280;46216;52.220;5.134;2023-04-01T00:52:03;99212.88;;;10.19;100.00
60373;BME280;46216;52.220;5.134;2023-04-01T00:54:30;99211.47;;;10.15;100.00
60373;BME280;46216;52.220;5.134;2023-04-01T00:57:00;99226.91;;;10.11;100.00
60373;BME280;46216;52.220;5.134;2023-04-01T00:59:29;99216.72;;;10.07;100.00
60373;BME280;46216;52.220;5.134;2023-04-01T01:01:56;99217.56;;;10.07;100.00
60373;BME280;46216;52.220;5.134;2023-04-01T01:04:30;99225.41;;;10.09;100.00
60373;BME280;46216;52.220;5.134;2023-04-01T01:09:52;99218.44;;;9.98;100.00
60373;BME280;46216;52.220;5.134;2023-04-01T01:15:15;99219.59;;;9.95;100.00
60373;BME280;46216;52.220;5.134;2023-04-01T01:17:51;99221.25;;;9.97;100.00
60373;BME280;46216;52.220;5.134;2023-04-01T01:26:44;99232.78;;;9.87;100.00
60373;BME280;46216;52.220;5.134;2023-04-01T01:29:25;99227.19;;;9.81;100.00
60373;BME280;46216;52.220;5.134;2023-04-01T01:37:36;99229.75;;;9.73;100.00
60373;BME280;46216;52.220;5.134;2023-04-01T01:40:05;99231.88;;;9.69;100.00
60373;BME280;46216;52.220;5.134;2023-04-01T01:42:35;99234.25;;;9.72;100.00
60373;BME280;46216;52.220;5.134;2023-04-01T01:45:06;99234.25;;;9.72;100.00
60373;BME280;46216;52.220;5.134;2023-04-01T01:47:34;99234.91;;;9.74;100.00
60373;BME280;46216;52.220;5.134;2023-04-01T01:50:00;99245.56;;;9.74;100.00
60373;BME280;46216;52.220;5.134;2023-04-01T01:52:29;99236.91;;;9.72;100.00
60373;BME280;46216;52.220;5.134;2023-04-01T01:54:57;99244.19;;;9.70;100.00
60373;BME280;46216;52.220;5.134;2023-04-01T01:57:29;99234.38;;;9.70;100.00
60373;BME280;46216;52.220;5.134;2023-04-01T01:59:59;99243.47;;;9.68;100.00
60373;BME280;46216;52.220;5.134;2023-04-01T02:02:26;99241.81;;;9.67;100.00
60373;BME280;46216;52.220;5.134;2023-04-01T02:04:52;99241.81;;;9.67;100.00
60373;BME280;46216;52.220;5.134;2023-04-01T02:07:26;99239.97;;;9.67;100.00
60373;BME280;46216;52.220;5.134;2023-04-01T02:09:52;99250.63;;;9.67;100.00
60373;BME280;46216;52.220;5.134;2023-04-01T02:12:19;99247.00;;;9.68;100.00
60373;BME280;46216;52.220;5.134;2023-04-01T02:15:09;99254.44;;;9.65;100.00
60373;BME280;46216;52.220;5.134;2023-04-01T02:17:39;99251.59;;;9.66;100.00
60373;BME280;46216;52.220;5.134;2023-04-01T02:20:09;99257.75;;;9.67;100.00
60373;BME280;46216;52.220;5.134;2023-04-01T02:22:39;99258.75;;;9.66;100.00
60373;BME280;46216;52.220;5.134;2023-04-01T02:25:16;99262.41;;;9.65;100.00
60373;BME280;46216;52.220;5.134;2023-04-01T02:27:44;99269.22;;;9.67;100.00
60373;BME280;46216;52.220;5.134;2023-04-01T02:30:11;99268.84;;;9.62;100.00
60373;BME280;46216;52.220;5.134;2023-04-01T02:32:38;99264.34;;;9.63;100.00
60373;BME280;46216;52.220;5.134;2023-04-01T02:35:09;99272.06;;;9.66;100.00
60373;BME280;46216;52.220;5.134;2023-04-01T02:37:36;99276.00;;;9.62;100.00
60373;BME280;46216;52.220;5.134;2023-04-01T02:40:03;99281.03;;;9.65;100.00
60373;BME280;46216;52.220;5.134;2023-04-01T02:42:31;99281.59;;;9.59;100.00
60373;BME280;46216;52.220;5.134;2023-04-01T02:44:57;99275.16;;;9.61;100.00
60373;BME280;46216;52.220;5.134;2023-04-01T02:47:22;99282.28;;;9.61;100.00
60373;BME280;46216;52.220;5.134;2023-04-01T02:49:47;99285.38;;;9.56;100.00
60373;BME280;46216;52.220;5.134;2023-04-01T02:52:13;99288.59;;;9.60;100.00
60373;BME280;46216;52.220;5.134;2023-04-01T02:54:38;99293.91;;;9.60;100.00
60373;BME280;46216;52.220;5.134;2023-04-01T02:57:03;99292.06;;;9.60;100.00
60373;BME280;46216;52.220;5.134;2023-04-01T02:59:29;99297.84;;;9.56;100.00
60373;BME280;46216;52.220;5.134;2023-04-01T03:01:54;99304.41;;;9.61;100.00
60373;BME280;46216;52.220;5.134;2023-04-01T03:04:20;99307.63;;;9.65;100.00
60373;BME280;46216;52.220;5.134;2023-04-01T03:06:45;99299.78;;;9.63;100.00
60373;BME280;46216;52.220;5.134;2023-04-01T03:09:11;99305.53;;;9.59;100.00
60373;BME280;46216;52.220;5.134;2023-04-01T03:11:36;99317.94;;;9.68;100.00
60373;BME280;46216;52.220;5.134;2023-04-01T03:14:01;99318.25;;;9.65;100.00
60373;BME280;46216;52.220;5.134;2023-04-01T03:16:27;99323.13;;;9.69;100.00
60373;BME280;46216;52.220;5.134;2023-04-01T03:18:52;99328.19;;;9.73;100.00
60373;BME280;46216;52.220;5.134;2023-04-01T03:21:23;99328.31;;;9.71;100.00
60373;BME280;46216;52.220;5.134;2023-04-01T03:23:49;99330.00;;;9.72;100.00
60373;BME280;46216;52.220;5.134;2023-04-01T03:26:15;99335.31;;;9.72;100.00
60373;BME280;46216;52.220;5.134;2023-04-01T03:28:41;99338.53;;;9.76;100.00
60373;BME280;46216;52.220;5.134;2023-04-01T03:31:06;99327.72;;;9.77;100.00
60373;BME280;46216;52.220;5.134;2023-04-01T03:33:32;99341.88;;;9.78;100.00
60373;BME280;46216;52.220;5.134;2023-04-01T03:35:57;99341.47;;;9.82;100.00
60373;BME280;46216;52.220;5.134;2023-04-01T03:38:23;99339.47;;;9.84;100.00
60373;BME280;46216;52.220;5.134;2023-04-01T03:40:48;99345.50;;;9.86;100.00
60373;BME280;46216;52.220;5.134;2023-04-01T03:43:14;99347.34;;;9.86;100.00
60373;BME280;46216;52.220;5.134;2023-04-01T03:45:49;99350.97;;;9.85;100.00
60373;BME280;46216;52.220;5.134;2023-04-01T03:48:15;99359.91;;;9.93;100.00
60373;BME280;46216;52.220;5.134;2023-04-01T03:50:40;99363.28;;;9.86;100.00
60373;BME280;46216;52.220;5.134;2023-04-01T03:53:06;99362.28;;;9.97;100.00
60373;BME280;46216;52.220;5.134;2023-04-01T03:55:32;99365.34;;;10.02;100.00
60373;BME280;46216;52.220;5.134;2023-04-01T03:57:57;99372.75;;;10.08;100.00
60373;BME280;46216;52.220;5.134;2023-04-01T04:00:22;99377.13;;;10.09;100.00
60373;BME280;46216;52.220;5.134;2023-04-01T04:02:48;99382.13;;;10.12;100.00
60373;BME280;46216;52.220;5.134;2023-04-01T04:05:14;99391.53;;;10.16;100.00
60373;BME280;46216;52.220;5.134;2023-04-01T04:07:39;99395.84;;;10.17;100.00
60373;BME280;46216;52.220;5.134;2023-04-01T04:10:05;99396.84;;;10.16;100.00
60373;BME280;46216;52.220;5.134;2023-04-01T04:12:31;99403.13;;;10.15;100.00
60373;BME280;46216;52.220;5.134;2023-04-01T04:14:56;99408.06;;;10.10;100.00
60373;BME280;46216;52.220;5.134;2023-04-01T04:17:21;99405.78;;;10.15;100.00
60373;BME280;46216;52.220;5.134;2023-04-01T04:19:47;99412.94;;;10.14;100.00
60373;BME280;46216;52.220;5.134;2023-04-01T04:22:12;99412.81;;;10.16;100.00
60373;BME280;46216;52.220;5.134;2023-04-01T04:24:38;99415.47;;;10.16;100.00
60373;BME280;46216;52.220;5.134;2023-04-01T04:27:03;99427.34;;;10.22;100.00
60373;BME280;46216;52.220;5.134;2023-04-01T04:29:29;99429.19;;;10.21;100.00
60373;BME280;46216;52.220;5.134;2023-04-01T04:31:55;99431.84;;;10.21;100.00
60373;BME280;46216;52.220;5.134;2023-04-01T04:34:20;99435.34;;;10.22;100.00
60373;BME280;46216;52.220;5.134;2023-04-01T04:36:47;99441.22;;;10.25;100.00
60373;BME280;46216;52.220;5.134;2023-04-01T04:39:14;99440.53;;;10.23;100.00
60373;BME280;46216;52.220;5.134;2023-04-01T04:41:40;99448.28;;;10.26;100.00
60373;BME280;46216;52.220;5.134;2023-04-01T04:44:06;99448.66;;;10.22;100.00
60373;BME280;46216;52.220;5.134;2023-04-01T04:46:31;99450.06;;;10.26;100.00
60373;BME280;46216;52.220;5.134;2023-04-01T04:48:57;99452.59;;;10.27;100.00
60373;BME280;46216;52.220;5.134;2023-04-01T04:51:22;99462.41;;;10.27;100.00
60373;BME280;46216;52.220;5.134;2023-04-01T04:53:48;99464.94;;;10.28;100.00
60373;BME280;46216;52.220;5.134;2023-04-01T04:56:20;99473.63;;;10.30;100.00
60373;BME280;46216;52.220;5.134;2023-04-01T04:58:46;99476.28;;;10.30;100.00
60373;BME280;46216;52.220;5.134;2023-04-01T05:01:13;99479.22;;;10.27;100.00
60373;BME280;46216;52.220;5.134;2023-04-01T05:03:39;99477.66;;;10.25;100.00
60373;BME280;46216;52.220;5.134;2023-04-01T05:06:06;99492.25;;;10.30;100.00
60373;BME280;46216;52.220;5.134;2023-04-01T05:08:32;99495.22;;;10.27;100.00
60373;BME280;46216;52.220;5.134;2023-04-01T05:10:58;99497.59;;;10.30;100.00
60373;BME280;46216;52.220;5.134;2023-04-01T05:13:24;99493.09;;;10.31;100.00
60373;BME280;46216;52.220;5.134;2023-04-01T05:15:50;99500.66;;;10.26;100.00
60373;BME280;46216;52.220;5.134;2023-04-01T05:18:16;99508.66;;;10.26;100.00
60373;BME280;46216;52.220;5.134;2023-04-01T05:20:51;99508.66;;;10.26;100.00
60373;BME280;46216;52.220;5.134;2023-04-01T05:23:17;99518.72;;;10.32;100.00
60373;BME280;46216;52.220;5.134;2023-04-01T05:25:43;99523.94;;;10.33;100.00
60373;BME280;46216;52.220;5.134;2023-04-01T05:28:10;99523.22;;;10.31;100.00
60373;BME280;46216;52.220;5.134;2023-04-01T05:30:36;99525.19;;;10.29;100.00
60373;BME280;46216;52.220;5.134;2023-04-01T05:33:01;99528.81;;;10.28;100.00
60373;BME280;46216;52.220;5.134;2023-04-01T05:35:26;99533.72;;;10.23;100.00
60373;BME280;46216;52.220;5.134;2023-04-01T05:37:52;99535.56;;;10.23;100.00
60373;BME280;46216;52.220;5.134;2023-04-01T05:40:17;99545.06;;;10.25;100.00
60373;BME280;46216;52.220;5.134;2023-04-01T05:42:43;99538.63;;;10.18;100.00
60373;BME280;46216;52.220;5.134;2023-04-01T05:45:09;99552.63;;;10.20;100.00
60373;BME280;46216;52.220;5.134;2023-04-01T05:47:35;99555.97;;;10.22;100.00
60373;BME280;46216;52.220;5.134;2023-04-01T05:50:00;99553.91;;;10.16;100.00
60373;BME280;46216;52.220;5.134;2023-04-01T05:52:26;99556.00;;;10.12;100.00
60373;BME280;46216;52.220;5.134;2023-04-01T05:54:51;99554.19;;;10.13;100.00
60373;BME280;46216;52.220;5.134;2023-04-01T05:57:16;99570.28;;;10.11;100.00
60373;BME280;46216;52.220;5.134;2023-04-01T05:59:42;99559.63;;;10.11;100.00
60373;BME280;46216;52.220;5.134;2023-04-01T06:02:08;99566.09;;;10.09;100.00
60373;BME280;46216;52.220;5.134;2023-04-01T06:04:38;99563.69;;;10.15;100.00
60373;BME280;46216;52.220;5.134;2023-04-01T06:07:17;99570.81;;;10.05;100.00
60373;BME280;46216;52.220;5.134;2023-04-01T06:09:44;99574.75;;;10.11;100.00
60373;BME280;46216;52.220;5.134;2023-04-01T06:15:07;99594.78;;;10.15;100.00
60373;BME280;46216;52.220;5.134;2023-04-01T06:18:07;99594.09;;;10.13;100.00
60373;BME280;46216;52.220;5.134;2023-04-01T06:28:56;99617.09;;;10.24;100.00
60373;BME280;46216;52.220;5.134;2023-04-01T06:37:12;99628.91;;;10.31;100.00
60373;BME280;46216;52.220;5.134;2023-04-01T06:39:46;99632.28;;;10.33;100.00
60373;BME280;46216;52.220;5.134;2023-04-01T06:42:21;99640.09;;;10.34;100.00
60373;BME280;46216;52.220;5.134;2023-04-01T06:45:01;99642.91;;;10.33;100.00
60373;BME280;46216;52.220;5.134;2023-04-01T06:56:15;99664.22;;;10.33;100.00
60373;BME280;46216;52.220;5.134;2023-04-01T07:01:40;99667.44;;;10.36;100.00
60373;BME280;46216;52.220;5.134;2023-04-01T07:04:13;99675.56;;;10.35;100.00
60373;BME280;46216;52.220;5.134;2023-04-01T07:06:48;99679.78;;;10.37;100.00
60373;BME280;46216;52.220;5.134;2023-04-01T07:09:21;99684.13;;;10.38;100.00
60373;BME280;46216;52.220;5.134;2023-04-01T07:11:50;99686.38;;;10.43;100.00
60373;BME280;46216;52.220;5.134;2023-04-01T07:14:36;99688.19;;;10.42;100.00
60373;BME280;46216;52.220;5.134;2023-04-01T07:17:22;99695.31;;;10.42;100.00
60373;BME280;46216;52.220;5.134;2023-04-01T07:19:54;99704.88;;;10.45;100.00
60373;BME280;46216;52.220;5.134;2023-04-01T07:22:29;99709.94;;;10.48;100.00
60373;BME280;46216;52.220;5.134;2023-04-01T07:25:03;99713.56;;;10.47;100.00
60373;BME280;46216;52.220;5.134;2023-04-01T07:27:30;99723.66;;;10.53;100.00
60373;BME280;46216;52.220;5.134;2023-04-01T07:29:57;99723.53;;;10.54;100.00
60373;BME280;46216;52.220;5.134;2023-04-01T07:32:47;99721.97;;;10.52;100.00
60373;BME280;46216;52.220;5.134;2023-04-01T07:35:24;99729.41;;;10.58;100.00
60373;BME280;46216;52.220;5.134;2023-04-01T07:38:14;99733.75;;;10.59;100.00
60373;BME280;46216;52.220;5.134;2023-04-01T07:40:48;99735.47;;;10.60;100.00
60373;BME280;46216;52.220;5.134;2023-04-01T07:43:40;99738.81;;;10.62;100.00
60373;BME280;46216;52.220;5.134;2023-04-01T07:46:23;99746.09;;;10.70;100.00
60373;BME280;46216;52.220;5.134;2023-04-01T07:49:04;99745.16;;;10.71;100.00
60373;BME280;46216;52.220;5.134;2023-04-01T07:51:38;99747.66;;;10.72;100.00
60373;BME280;46216;52.220;5.134;2023-04-01T07:56:51;99759.88;;;10.84;100.00
60373;BME280;46216;52.220;5.134;2023-04-01T07:59:56;99763.81;;;10.80;100.00
60373;BME280;46216;52.220;5.134;2023-04-01T08:05:22;99767.72;;;10.96;100.00
60373;BME280;46216;52.220;5.134;2023-04-01T08:10:52;99784.00;;;10.93;100.00
60373;BME280;46216;52.220;5.134;2023-04-01T08:19:59;99798.03;;;10.95;100.00
60373;BME280;46216;52.220;5.134;2023-04-01T08:21:52;99798.03;;;10.95;100.00
60373;BME280;46216;52.220;5.134;2023-04-01T08:26:53;99808.44;;;10.98;100.00
60373;BME280;46216;52.220;5.134;2023-04-01T08:29:23;99808.16;;;11.01;100.00
60373;BME280;46216;52.220;5.134;2023-04-01T08:32:09;99810.09;;;10.99;100.00
60373;BME280;46216;52.220;5.134;2023-04-01T08:34:38;99809.00;;;11.01;100.00
60373;BME280;46216;52.220;5.134;2023-04-01T08:37:11;99823.00;;;11.03;100.00
60373;BME280;46216;52.220;5.134;2023-04-01T08:48:15;99831.28;;;11.10;100.00
60373;BME280;46216;52.220;5.134;2023-04-01T08:50:53;99845.63;;;11.19;100.00
60373;BME280;46216;52.220;5.134;2023-04-01T08:53:35;99844.06;;;11.16;100.00
60373;BME280;46216;52.220;5.134;2023-04-01T08:59:18;99855.00;;;11.13;100.00
60373;BME280;46216;52.220;5.134;2023-04-01T09:05:32;99853.19;;;11.13;100.00
60373;BME280;46216;52.220;5.134;2023-04-01T09:11:16;99860.63;;;11.10;100.00
60373;BME280;46216;52.220;5.134;2023-04-01T09:13:51;99864.56;;;11.16;100.00
60373;BME280;46216;52.220;5.134;2023-04-01T09:16:36;99868.22;;;11.15;100.00
60373;BME280;46216;52.220;5.134;2023-04-01T09:24:22;99872.53;;;11.06;100.00
60373;BME280;46216;52.220;5.134;2023-04-01T09:27:03;99874.94;;;11.09;100.00
60373;BME280;46216;52.220;5.134;2023-04-01T09:32:47;99889.13;;;11.19;100.00
60373;BME280;46216;52.220;5.134;2023-04-01T09:35:52;99887.00;;;11.13;100.00
60373;BME280;46216;52.220;5.134;2023-04-01T09:41:09;99905.25;;;11.27;100.00
60373;BME280;46216;52.220;5.134;2023-04-01T09:46:35;99911.44;;;11.37;100.00
60373;BME280;46216;52.220;5.134;2023-04-01T09:54:31;99919.31;;;11.29;100.00
60373;BME280;46216;52.220;5.134;2023-04-01T10:14:47;99937.72;;;11.71;100.00
60373;BME280;46216;52.220;5.134;2023-04-01T10:20:24;99936.31;;;11.77;100.00
60373;BME280;46216;52.220;5.134;2023-04-01T10:34:27;99955.03;;;11.87;100.00
60373;BME280;46216;52.220;5.134;2023-04-01T10:53:37;99975.38;;;12.26;100.00
60373;BME280;46216;52.220;5.134;2023-04-01T10:56:32;99977.34;;;12.24;100.00
60373;BME280;46216;52.220;5.134;2023-04-01T10:59:15;99971.84;;;12.26;100.00
60373;BME280;46216;52.220;5.134;2023-04-01T11:19:05;99995.22;;;11.95;100.00
60373;BME280;46216;52.220;5.134;2023-04-01T11:30:51;100008.28;;;11.88;100.00
60373;BME280;46216;52.220;5.134;2023-04-01T11:44:29;100034.84;;;11.90;100.00
60373;BME280;46216;52.220;5.134;2023-04-01T12:00:52;100048.88;;;11.92;100.00
60373;BME280;46216;52.220;5.134;2023-04-01T12:06:02;100058.47;;;12.04;100.00
60373;BME280;46216;52.220;5.134;2023-04-01T12:17:25;100070.41;;;12.00;100.00
60373;BME280;46216;52.220;5.134;2023-04-01T12:37:19;100107.44;;;11.83;100.00
60373;BME280;46216;52.220;5.134;2023-04-01T12:42:39;100110.38;;;11.80;100.00
60373;BME280;46216;52.220;5.134;2023-04-01T12:45:35;100116.56;;;11.81;100.00
60373;BME280;46216;52.220;5.134;2023-04-01T12:48:58;100117.75;;;11.98;100.00
60373;BME280;46216;52.220;5.134;2023-04-01T12:54:32;100115.41;;;12.34;100.00
60373;BME280;46216;52.220;5.134;2023-04-01T12:57:26;100118.94;;;12.53;100.00
60373;BME280;46216;52.220;5.134;2023-04-01T13:00:53;100127.91;;;12.62;100.00
60373;BME280;46216;52.220;5.134;2023-04-01T13:03:17;100125.78;;;12.56;100.00
60373;BME280;46216;52.220;5.134;2023-04-01T13:06:04;100134.09;;;12.53;100.00
60373;BME280;46216;52.220;5.134;2023-04-01T13:08:52;100138.03;;;12.39;100.00
60373;BME280;46216;52.220;5.134;2023-04-01T13:11:37;100143.38;;;12.29;100.00
60373;BME280;46216;52.220;5.134;2023-04-01T13:16:54;100154.06;;;12.10;100.00
60373;BME280;46216;52.220;5.134;2023-04-01T13:20:03;100155.00;;;12.09;100.00
60373;BME280;46216;52.220;5.134;2023-04-01T13:24:59;100163.88;;;12.00;100.00
60373;BME280;46216;52.220;5.134;2023-04-01T13:27:44;100169.72;;;11.84;100.00
60373;BME280;46216;52.220;5.134;2023-04-01T13:30:38;100173.03;;;11.76;100.00
60373;BME280;46216;52.220;5.134;2023-04-01T13:33:15;100186.50;;;11.75;100.00
60373;BME280;46216;52.220;5.134;2023-04-01T13:35:56;100187.91;;;11.69;100.00
60373;BME280;46216;52.220;5.134;2023-04-01T13:38:40;100178.19;;;11.68;100.00
60373;BME280;46216;52.220;5.134;2023-04-01T13:44:02;100192.38;;;11.59;100.00
60373;BME280;46216;52.220;5.134;2023-04-01T13:57:07;100205.19;;;11.34;100.00
60373;BME280;46216;52.220;5.134;2023-04-01T14:08:24;100222.88;;;11.35;100.00
60373;BME280;46216;52.220;5.134;2023-04-01T14:14:05;100230.97;;;11.34;100.00
60373;BME280;46216;52.220;5.134;2023-04-01T14:19:51;100246.72;;;11.37;100.00
60373;BME280;46216;52.220;5.134;2023-04-01T14:27:59;100252.72;;;11.29;100.00
60373;BME280;46216;52.220;5.134;2023-04-01T14:38:58;100279.16;;;11.32;100.00
60373;BME280;46216;52.220;5.134;2023-04-01T14:50:46;100292.28;;;11.24;100.00
60373;BME280;46216;52.220;5.134;2023-04-01T14:53:28;100301.50;;;11.20;100.00
60373;BME280;46216;52.220;5.134;2023-04-01T14:55:57;100309.50;;;11.20;100.00
60373;BME280;46216;52.220;5.134;2023-04-01T14:58:31;100305.56;;;11.15;100.00
60373;BME280;46216;52.220;5.134;2023-04-01T15:09:09;100323.03;;;11.07;100.00
60373;BME280;46216;52.220;5.134;2023-04-01T15:11:48;100326.81;;;11.05;100.00
60373;BME280;46216;52.220;5.134;2023-04-01T15:14:42;100340.50;;;11.00;100.00
60373;BME280;46216;52.220;5.134;2023-04-01T15:26:07;100356.69;;;10.87;100.00
60373;BME280;46216;52.220;5.134;2023-04-01T15:35:00;100378.50;;;10.81;100.00
60373;BME280;46216;52.220;5.134;2023-04-01T15:40:43;100382.97;;;10.81;100.00
60373;BME280;46216;52.220;5.134;2023-04-01T15:46:48;100399.81;;;10.81;100.00
60373;BME280;46216;52.220;5.134;2023-04-01T15:49:37;100406.84;;;10.71;100.00
60373;BME280;46216;52.220;5.134;2023-04-01T15:52:12;100407.56;;;10.73;100.00
60373;BME280;46216;52.220;5.134;2023-04-01T15:55:07;100415.84;;;10.70;100.00
60373;BME280;46216;52.220;5.134;2023-04-01T16:00:49;100429.16;;;10.70;100.00
60373;BME280;46216;52.220;5.134;2023-04-01T16:03:51;100440.31;;;10.64;100.00
60373;BME280;46216;52.220;5.134;2023-04-01T16:19:53;100461.63;;;10.64;100.00
60373;BME280;46216;52.220;5.134;2023-04-01T16:22:37;100459.06;;;10.62;100.00
60373;BME280;46216;52.220;5.134;2023-04-01T16:36:13;100490.78;;;10.43;100.00
60373;BME280;46216;52.220;5.134;2023-04-01T16:44:28;100505.78;;;10.33;100.00
60373;BME280;46216;52.220;5.134;2023-04-01T16:47:06;100514.63;;;10.33;100.00
60373;BME280;46216;52.220;5.134;2023-04-01T16:57:15;100541.19;;;10.22;100.00
60373;BME280;46216;52.220;5.134;2023-04-01T17:00:02;100548.47;;;10.20;100.00
60373;BME280;46216;52.220;5.134;2023-04-01T17:02:39;100564.13;;;10.12;100.00
60373;BME280;46216;52.220;5.134;2023-04-01T17:05:11;100567.75;;;10.00;100.00
60373;BME280;46216;52.220;5.134;2023-04-01T17:08:04;100571.13;;;10.02;100.00
60373;BME280;46216;52.220;5.134;2023-04-01T17:10:52;100590.34;;;9.94;100.00
60373;BME280;46216;52.220;5.134;2023-04-01T17:13:33;100587.06;;;9.90;100.00
60373;BME280;46216;52.220;5.134;2023-04-01T17:16:19;100594.41;;;9.87;100.00
60373;BME280;46216;52.220;5.134;2023-04-01T17:19:05;100595.47;;;9.84;100.00
60373;BME280;46216;52.220;5.134;2023-04-01T17:21:45;100600.81;;;9.84;100.00
60373;BME280;46216;52.220;5.134;2023-04-01T17:27:17;100621.91;;;9.75;100.00
60373;BME280;46216;52.220;5.134;2023-04-01T17:32:49;100628.34;;;9.72;100.00
60373;BME280;46216;52.220;5.134;2023-04-01T17:38:34;100639.38;;;9.79;100.00
60373;BME280;46216;52.220;5.134;2023-04-01T17:43:53;100648.53;;;9.75;100.00
60373;BME280;46216;52.220;5.134;2023-04-01T17:49:23;100669.09;;;9.73;100.00
60373;BME280;46216;52.220;5.134;2023-04-01T17:52:06;100680.03;;;9.68;100.00
60373;BME280;46216;52.220;5.134;2023-04-01T17:57:52;100685.84;;;9.49;100.00
60373;BME280;46216;52.220;5.134;2023-04-01T18:11:20;100717.00;;;9.47;100.00
60373;BME280;46216;52.220;5.134;2023-04-01T18:14:30;100723.09;;;9.49;100.00
60373;BME280;46216;52.220;5.134;2023-04-01T18:17:24;100744.16;;;9.39;100.00
60373;BME280;46216;52.220;5.134;2023-04-01T18:23:00;100749.69;;;9.36;100.00
60373;BME280;46216;52.220;5.134;2023-04-01T18:25:40;100748.19;;;9.32;100.00
60373;BME280;46216;52.220;5.134;2023-04-01T18:30:54;100764.78;;;9.23;100.00
60373;BME280;46216;52.220;5.134;2023-04-01T18:33:28;100778.59;;;9.15;100.00
60373;BME280;46216;52.220;5.134;2023-04-01T18:38:39;100785.72;;;9.15;100.00
60373;BME280;46216;52.220;5.134;2023-04-01T18:41:49;100793.59;;;9.16;100.00
60373;BME280;46216;52.220;5.134;2023-04-01T18:47:05;100815.94;;;9.14;100.00
60373;BME280;46216;52.220;5.134;2023-04-01T18:52:20;100831.13;;;9.12;100.00
60373;BME280;46216;52.220;5.134;2023-04-01T18:57:50;100845.97;;;9.02;100.00
60373;BME280;46216;52.220;5.134;2023-04-01T19:00:28;100842.56;;;8.99;100.00
60373;BME280;46216;52.220;5.134;2023-04-01T19:03:16;100851.69;;;8.95;100.00
60373;BME280;46216;52.220;5.134;2023-04-01T19:05:47;100861.78;;;8.90;100.00
60373;BME280;46216;52.220;5.134;2023-04-01T19:08:32;100867.56;;;8.83;100.00
60373;BME280;46216;52.220;5.134;2023-04-01T19:11:24;100869.59;;;8.79;100.00
60373;BME280;46216;52.220;5.134;2023-04-01T19:14:02;100885.25;;;8.84;100.00
60373;BME280;46216;52.220;5.134;2023-04-01T19:19:37;100894.47;;;8.78;100.00
60373;BME280;46216;52.220;5.134;2023-04-01T19:22:22;100900.94;;;8.74;100.00
60373;BME280;46216;52.220;5.134;2023-04-01T19:27:45;100910.50;;;8.76;100.00
60373;BME280;46216;52.220;5.134;2023-04-01T19:35:54;100927.13;;;8.66;100.00
60373;BME280;46216;52.220;5.134;2023-04-01T19:44:04;100940.50;;;8.64;100.00
60373;BME280;46216;52.220;5.134;2023-04-01T19:46:44;100948.38;;;8.51;100.00
60373;BME280;46216;52.220;5.134;2023-04-01T19:57:16;100973.63;;;8.44;100.00
60373;BME280;46216;52.220;5.134;2023-04-01T19:59:58;100979.91;;;8.43;100.00
60373;BME280;46216;52.220;5.134;2023-04-01T20:02:52;100987.34;;;8.37;100.00
60373;BME280;46216;52.220;5.134;2023-04-01T20:05:35;100998.66;;;8.40;100.00
60373;BME280;46216;52.220;5.134;2023-04-01T20:08:17;100998.81;;;8.37;100.00
60373;BME280;46216;52.220;5.134;2023-04-01T20:11:01;101012.47;;;8.31;100.00
60373;BME280;46216;52.220;5.134;2023-04-01T20:19:13;101019.69;;;8.29;100.00
60373;BME280;46216;52.220;5.134;2023-04-01T20:21:46;101035.78;;;8.26;100.00
60373;BME280;46216;52.220;5.134;2023-04-01T20:26:41;101045.47;;;8.27;100.00
60373;BME280;46216;52.220;5.134;2023-04-01T20:37:52;101065.56;;;8.01;100.00
60373;BME280;46216;52.220;5.134;2023-04-01T20:45:56;101085.00;;;8.01;100.00
60373;BME280;46216;52.220;5.134;2023-04-01T20:48:28;101098.38;;;8.00;100.00
60373;BME280;46216;52.220;5.134;2023-04-01T20:51:10;101102.69;;;7.87;100.00
60373;BME280;46216;52.220;5.134;2023-04-01T20:57:04;101114.31;;;7.84;100.00
60373;BME280;46216;52.220;5.134;2023-04-01T21:07:56;101129.66;;;7.79;100.00
60373;BME280;46216;52.220;5.134;2023-04-01T21:10:56;101142.06;;;7.78;100.00